Time;durP1;ratioP1;P1;durP2;ratioP2;P2;SDS_P1;SDS_P2;PMS_P1;PMS_P2;Temp;Humidity;BMP_temperature;BMP_pressure;BME280_temperature;BME280_humidity;BME280_pressure;Samples;Min_cycle;Max_cycle;Signal;HPM_P1;HPM_P2
2023/12/18 00:01:29;;;;;;;14.48;11.10;;;;;;;5.76;83.17;103083.03;3607353;39;20492;-65
2023/12/18 00:03:54;;;;;;;13.27;8.70;;;;;;;5.74;82.69;103076.84;3606931;39;20050;-65
2023/12/18 00:06:20;;;;;;;16.08;8.45;;;;;;;5.82;82.71;103077.66;3607126;39;20307;-65
2023/12/18 00:08:46;;;;;;;14.95;9.10;;;;;;;5.57;82.65;103026.22;3607537;39;20059;-64
2023/12/18 00:11:11;;;;;;;11.40;7.78;;;;;;;5.96;82.03;103076.72;3606503;39;20059;-65
2023/12/18 00:13:37;;;;;;;15.95;10.13;;;;;;;5.99;83.04;103079.38;3606896;39;20074;-64
2023/12/18 00:16:03;;;;;;;16.13;8.82;;;;;;;6.04;82.30;103077.56;3606252;39;20313;-65
2023/12/18 00:18:29;;;;;;;16.73;12.35;;;;;;;6.10;81.81;103082.00;3608704;39;20057;-65
2023/12/18 00:20:54;;;;;;;15.20;9.38;;;;;;;6.15;81.75;103085.50;3604420;39;20319;-64
2023/12/18 00:23:20;;;;;;;14.65;7.97;;;;;;;6.23;80.91;103070.31;3606181;39;20062;-65
2023/12/18 00:25:45;;;;;;;11.68;8.63;;;;;;;6.25;80.85;103071.19;3606816;39;20062;-64
2023/12/18 00:28:11;;;;;;;13.13;8.38;;;;;;;6.28;81.50;103069.38;3608153;39;20051;-65
2023/12/18 00:30:37;;;;;;;15.57;9.90;;;;;;;6.32;81.46;103069.38;3607685;39;20048;-64
2023/12/18 00:33:02;;;;;;;12.57;9.00;;;;;;;6.40;81.71;103063.03;3605088;39;20055;-65
2023/12/18 00:35:28;;;;;;;15.55;9.45;;;;;;;6.42;80.95;103065.72;3611265;39;20047;-65
2023/12/18 00:37:54;;;;;;;16.08;9.73;;;;;;;6.43;81.03;103059.47;3607548;39;20062;-65
2023/12/18 00:40:21;;;;;;;15.07;9.55;;;;;;;6.47;81.04;103056.75;3608334;39;20079;-64
2023/12/18 00:42:47;;;;;;;15.50;9.60;;;;;;;6.57;80.76;103064.69;3608000;39;20127;-65
2023/12/18 00:45:15;;;;;;;13.85;9.80;;;;;;;6.52;81.24;103056.72;3608339;39;20066;-65
2023/12/18 00:47:41;;;;;;;17.00;9.32;;;;;;;6.54;80.75;103062.94;3606009;39;20101;-66
2023/12/18 00:50:09;;;;;;;13.75;9.90;;;;;;;6.54;81.20;103062.94;3609247;39;20051;-65
2023/12/18 00:52:36;;;;;;;17.67;10.93;;;;;;;6.63;81.33;103059.28;3611148;39;20055;-65
2023/12/18 00:55:02;;;;;;;19.52;10.77;;;;;;;6.64;81.92;103053.94;3608274;39;20055;-65
2023/12/18 00:57:28;;;;;;;13.00;9.63;;;;;;;6.68;81.55;103060.13;3605918;39;20054;-64
2023/12/18 00:59:53;;;;;;;15.32;9.90;;;;;;;6.67;81.69;103075.28;3605746;39;20055;-65
2023/12/18 01:02:19;;;;;;;18.45;9.93;;;;;;;6.69;81.83;103062.81;3607686;39;20055;-65
2023/12/18 01:04:45;;;;;;;18.00;10.65;;;;;;;6.66;81.77;103057.47;3606494;39;20287;-65
2023/12/18 01:07:10;;;;;;;16.23;10.40;;;;;;;6.70;81.72;103053.88;3607155;39;20059;-64
2023/12/18 01:09:36;;;;;;;16.63;10.40;;;;;;;6.70;82.60;103053.88;3609249;39;20082;-65
2023/12/18 01:12:01;;;;;;;16.38;11.05;;;;;;;6.69;82.86;103044.09;3608761;39;20051;-65
2023/12/18 01:14:27;;;;;;;15.10;10.88;;;;;;;6.71;82.91;103050.28;3610396;39;20066;-65
2023/12/18 01:16:54;;;;;;;19.08;11.63;;;;;;;6.73;83.57;103053.84;3608246;39;20058;-65
2023/12/18 01:19:21;;;;;;;16.70;11.27;;;;;;;6.65;83.62;103028.09;3612280;39;20083;-65
2023/12/18 01:21:46;;;;;;;18.25;11.73;;;;;;;6.74;83.84;103047.59;3607795;39;20055;-65
2023/12/18 01:24:12;;;;;;;16.15;11.13;;;;;;;6.75;83.20;103035.09;3607113;39;20492;-65
2023/12/18 01:26:38;;;;;;;17.65;11.75;;;;;;;6.64;83.42;103012.97;3608448;39;20067;-65
2023/12/18 01:29:07;;;;;;;22.25;11.85;;;;;;;6.79;83.28;103041.28;3608313;39;20248;-65
2023/12/18 01:31:32;;;;;;;20.30;12.18;;;;;;;6.80;83.90;103035.06;3611072;39;20058;-65
2023/12/18 01:33:58;;;;;;;16.17;11.77;;;;;;;6.81;83.92;103039.50;3606674;39;20051;-65
2023/12/18 01:36:25;;;;;;;21.25;11.88;;;;;;;6.82;83.91;103047.53;3609120;39;20090;-65
2023/12/18 01:38:51;;;;;;;17.05;11.95;;;;;;;6.52;83.88;102992.59;3609905;39;20333;-64
2023/12/18 01:41:17;;;;;;;18.88;12.25;;;;;;;6.83;84.17;103037.72;3609350;39;20055;-65
2023/12/18 01:43:43;;;;;;;17.70;11.70;;;;;;;6.80;83.68;103035.06;3609335;39;20051;-65
2023/12/18 01:46:17;;;;;;;21.40;12.95;;;;;;;6.87;84.57;103052.81;3608542;39;20051;-65
2023/12/18 01:48:43;;;;;;;20.15;11.93;;;;;;;6.85;84.37;103046.56;3610657;39;20057;-65
2023/12/18 01:51:09;;;;;;;17.83;11.52;;;;;;;6.90;84.38;103050.09;3608160;39;20070;-65
2023/12/18 01:53:53;;;;;;;18.15;12.98;;;;;;;6.90;85.22;103052.78;3609882;39;20113;-65
2023/12/18 01:56:25;;;;;;;18.77;12.43;;;;;;;6.94;85.04;103052.72;3605196;39;20351;-65
2023/12/18 01:58:55;;;;;;;19.27;12.93;;;;;;;6.96;84.42;103047.38;3597288;39;20287;-65
2023/12/18 02:01:22;;;;;;;20.35;13.05;;;;;;;6.93;84.74;103040.25;3610969;39;20054;-65
2023/12/18 02:03:49;;;;;;;18.05;12.30;;;;;;;6.95;85.23;103041.13;3609123;39;20066;-65
2023/12/18 02:06:18;;;;;;;19.58;12.82;;;;;;;6.97;84.87;103046.44;3609479;39;20307;-65
2023/12/18 02:08:44;;;;;;;16.25;11.98;;;;;;;6.96;84.79;103034.00;3610582;39;20046;-65
2023/12/18 02:11:10;;;;;;;21.40;12.40;;;;;;;6.93;85.50;103023.34;3610083;39;20368;-65
2023/12/18 02:13:36;;;;;;;21.23;11.93;;;;;;;6.91;84.81;103012.66;3610944;39;20089;-65
2023/12/18 02:16:01;;;;;;;17.42;11.85;;;;;;;7.00;84.95;103035.72;3608663;39;20388;-65
2023/12/18 02:18:27;;;;;;;22.58;13.73;;;;;;;6.95;84.97;103032.22;3612122;39;20085;-65
2023/12/18 02:20:52;;;;;;;17.52;11.95;;;;;;;7.00;85.30;103040.19;3609176;39;20058;-65
2023/12/18 02:23:18;;;;;;;19.73;12.95;;;;;;;6.96;85.76;103039.34;3607252;39;20051;-65
2023/12/18 02:25:44;;;;;;;21.27;12.90;;;;;;;6.97;84.61;103033.09;3605117;39;20058;-65
2023/12/18 02:28:11;;;;;;;18.05;12.52;;;;;;;6.89;85.47;103022.50;3609633;39;20067;-65
2023/12/18 02:30:37;;;;;;;19.42;11.88;;;;;;;6.95;84.94;103030.44;3613176;39;20403;-65
2023/12/18 02:33:03;;;;;;;21.08;12.55;;;;;;;6.95;84.87;103026.88;3607025;39;20074;-65
2023/12/18 02:35:29;;;;;;;23.73;12.65;;;;;;;6.95;85.64;103026.88;3606840;39;20043;-65
2023/12/18 02:37:55;;;;;;;21.50;12.70;;;;;;;6.93;85.02;103024.22;3606108;39;20091;-65
2023/12/18 02:40:22;;;;;;;20.60;13.05;;;;;;;6.96;85.75;103017.94;3607920;39;20058;-65
2023/12/18 02:42:47;;;;;;;21.90;12.57;;;;;;;6.97;85.56;103009.03;3608981;39;20053;-65
2023/12/18 02:45:13;;;;;;;17.45;12.27;;;;;;;6.95;85.41;103010.84;3604625;39;20055;-65
2023/12/18 02:47:38;;;;;;;23.45;12.57;;;;;;;6.96;85.10;103018.84;3607605;39;20051;-65
2023/12/18 02:50:06;;;;;;;19.55;13.20;;;;;;;6.93;85.67;103009.97;3605720;39;20093;-65
2023/12/18 02:52:32;;;;;;;18.65;13.05;;;;;;;6.90;85.62;103008.19;3609553;39;20049;-65
2023/12/18 02:54:59;;;;;;;20.73;12.77;;;;;;;6.88;85.96;102999.34;3607784;39;20050;-66
2023/12/18 02:57:24;;;;;;;22.23;13.30;;;;;;;6.92;85.87;103010.88;3609807;39;20059;-65
2023/12/18 02:59:50;;;;;;;19.88;12.90;;;;;;;6.94;85.29;103003.69;3608576;39;20123;-65
2023/12/18 03:02:16;;;;;;;18.25;12.43;;;;;;;6.93;85.93;102996.59;3608329;39;20055;-63
2023/12/18 03:04:41;;;;;;;22.73;14.23;;;;;;;6.92;85.95;102992.16;3608984;39;20054;-65
2023/12/18 03:07:09;;;;;;;18.00;12.90;;;;;;;6.85;85.89;102985.09;3608002;39;20418;-65
2023/12/18 03:09:35;;;;;;;21.77;13.13;;;;;;;6.90;85.89;102980.59;3608421;39;20086;-65
2023/12/18 03:12:01;;;;;;;23.35;13.55;;;;;;;6.91;86.60;102990.38;3607592;39;20135;-66
2023/12/18 03:14:26;;;;;;;20.80;13.10;;;;;;;6.92;86.50;102992.16;3610125;39;20406;-65
2023/12/18 03:16:52;;;;;;;19.92;12.68;;;;;;;6.90;85.98;102981.47;3607765;39;20390;-65
2023/12/18 03:19:18;;;;;;;19.63;13.48;;;;;;;6.88;86.64;102991.31;3608008;39;20062;-65
2023/12/18 03:21:45;;;;;;;26.15;14.23;;;;;;;6.21;86.24;102872.69;3609263;39;20053;-66
2023/12/18 03:24:11;;;;;;;22.52;13.02;;;;;;;6.88;86.83;102983.28;3608955;39;20059;-66
2023/12/18 03:26:37;;;;;;;22.17;14.50;;;;;;;6.88;86.69;102987.72;3610067;39;20073;-66
2023/12/18 03:29:04;;;;;;;21.55;13.65;;;;;;;6.90;86.99;102980.59;3608842;39;20069;-65
2023/12/18 03:31:29;;;;;;;18.17;13.60;;;;;;;6.82;86.58;102978.03;3607710;39;20375;-65
2023/12/18 03:33:55;;;;;;;21.13;13.30;;;;;;;6.91;86.66;102987.69;3607078;39;20123;-66
2023/12/18 03:36:20;;;;;;;23.95;14.40;;;;;;;6.93;86.94;102983.22;3607089;39;20066;-66
2023/12/18 03:38:46;;;;;;;24.08;14.23;;;;;;;6.95;87.44;102978.75;3606875;39;20048;-67
2023/12/18 03:41:12;;;;;;;19.98;13.02;;;;;;;6.96;86.70;102980.53;3607480;39;20127;-66
2023/12/18 03:43:37;;;;;;;18.92;13.32;;;;;;;6.98;86.41;102978.72;3610388;39;20047;-66
2023/12/18 03:46:04;;;;;;;21.55;14.15;;;;;;;6.81;86.83;102953.97;3606502;39;20523;-66
2023/12/18 03:48:30;;;;;;;26.40;15.60;;;;;;;6.95;86.94;102984.09;3611254;39;20043;-65
2023/12/18 03:50:55;;;;;;;23.52;14.15;;;;;;;6.95;86.84;102984.09;3613589;39;20072;-65
2023/12/18 03:53:21;;;;;;;22.90;13.77;;;;;;;6.96;87.42;102980.53;3613944;39;20063;-65
2023/12/18 03:55:46;;;;;;;24.35;14.30;;;;;;;6.98;87.80;102976.06;3613860;39;20294;-65
2023/12/18 03:58:12;;;;;;;24.15;14.63;;;;;;;6.98;87.90;102986.75;3609985;39;20075;-65
2023/12/18 04:00:38;;;;;;;23.70;14.60;;;;;;;6.96;87.56;102993.88;3612048;39;20071;-65
2023/12/18 04:03:04;;;;;;;21.02;14.32;;;;;;;6.97;87.64;102988.50;3610536;39;20055;-65
2023/12/18 04:05:30;;;;;;;25.73;14.93;;;;;;;6.98;87.28;102995.66;3610112;39;20057;-65
2023/12/18 04:07:56;;;;;;;21.70;14.85;;;;;;;7.01;88.04;102999.16;3608790;39;20055;-65
2023/12/18 04:10:22;;;;;;;24.77;14.80;;;;;;;6.97;87.92;102988.50;3609321;39;20051;-65
2023/12/18 04:12:48;;;;;;;23.33;15.13;;;;;;;6.98;87.77;102990.31;3613416;39;20050;-65
2023/12/18 04:15:13;;;;;;;21.85;13.98;;;;;;;7.04;87.95;102986.66;3611368;39;20049;-65
2023/12/18 04:17:39;;;;;;;21.85;14.75;;;;;;;6.96;87.48;102977.84;3611871;39;20059;-65
2023/12/18 04:20:06;;;;;;;23.63;14.70;;;;;;;7.01;88.12;102984.03;3609459;39;20061;-65
2023/12/18 04:22:32;;;;;;;26.83;15.07;;;;;;;7.02;87.86;102984.91;3607621;39;20061;-65
2023/12/18 04:24:58;;;;;;;26.02;14.82;;;;;;;6.98;87.95;102962.69;3606664;39;20055;-65
2023/12/18 04:27:24;;;;;;;23.33;15.15;;;;;;;7.05;88.30;102979.53;3610833;39;20430;-65
2023/12/18 04:29:49;;;;;;;21.38;14.52;;;;;;;7.05;88.17;102975.06;3612182;39;20042;-65
2023/12/18 04:32:15;;;;;;;28.55;15.18;;;;;;;7.05;87.82;102977.72;3608164;39;20049;-65
2023/12/18 04:34:42;;;;;;;23.80;15.80;;;;;;;6.84;87.74;102945.91;3611709;39;21358;-65
2023/12/18 04:37:09;;;;;;;24.80;15.05;;;;;;;6.93;87.86;102959.16;3610775;39;20113;-65
2023/12/18 04:39:35;;;;;;;26.83;14.63;;;;;;;7.06;88.34;102973.25;3612169;39;20047;-64
2023/12/18 04:42:00;;;;;;;21.15;13.70;;;;;;;7.05;88.35;102967.03;3611749;39;20051;-65
2023/12/18 04:44:26;;;;;;;27.58;14.82;;;;;;;6.97;88.01;102953.75;3611438;39;20314;-64
2023/12/18 04:46:52;;;;;;;21.35;14.88;;;;;;;7.04;88.16;102975.97;3613102;39;20051;-65
2023/12/18 04:49:19;;;;;;;22.02;14.23;;;;;;;6.87;87.90;102945.88;3610028;39;20402;-65
2023/12/18 04:51:44;;;;;;;24.25;14.45;;;;;;;7.04;87.83;102975.06;3608321;39;20043;-65
2023/12/18 04:54:10;;;;;;;23.88;15.48;;;;;;;7.02;88.68;102969.75;3607560;39;20104;-65
2023/12/18 04:56:36;;;;;;;25.27;15.65;;;;;;;7.08;88.24;102968.78;3610731;39;20063;-66
2023/12/18 04:59:01;;;;;;;25.05;14.68;;;;;;;7.05;87.94;102969.72;3612097;39;20053;-65
2023/12/18 05:01:28;;;;;;;27.67;15.35;;;;;;;7.06;88.40;102966.13;3611635;39;20395;-65
2023/12/18 05:03:54;;;;;;;22.50;14.43;;;;;;;7.05;88.77;102959.00;3610508;39;20171;-65
2023/12/18 05:06:31;;;;;;;28.02;14.85;;;;;;;7.05;88.12;102959.00;3610922;39;20411;-65
2023/12/18 05:08:56;;;;;;;22.88;14.98;;;;;;;7.06;88.14;102967.91;3611320;39;20091;-65
2023/12/18 05:11:24;;;;;;;24.48;15.25;;;;;;;6.81;88.22;102928.09;3610582;39;20603;-65
2023/12/18 05:13:51;;;;;;;22.65;14.35;;;;;;;7.06;88.02;102970.59;3608102;39;20051;-64
2023/12/18 05:16:21;;;;;;;27.30;16.33;;;;;;;7.04;88.35;102961.69;3608628;39;20096;-64
2023/12/18 05:18:47;;;;;;;25.38;15.43;;;;;;;7.04;88.42;102962.59;3611222;39;20077;-64
2023/12/18 05:21:13;;;;;;;22.83;14.65;;;;;;;7.03;88.70;102958.13;3609441;39;20055;-65
2023/12/18 05:23:39;;;;;;;24.90;15.15;;;;;;;7.00;88.77;102950.16;3611520;39;20063;-65
2023/12/18 05:26:05;;;;;;;26.33;15.32;;;;;;;7.00;88.30;102944.81;3609313;39;20435;-64
2023/12/18 05:28:31;;;;;;;27.20;16.63;;;;;;;7.00;89.43;102954.63;3610178;39;20055;-64
2023/12/18 05:30:57;;;;;;;23.27;15.65;;;;;;;7.02;88.82;102951.03;3609951;39;20051;-66
2023/12/18 05:33:23;;;;;;;24.50;15.40;;;;;;;7.03;88.63;102960.81;3611557;39;20074;-66
2023/12/18 05:35:49;;;;;;;24.73;16.17;;;;;;;7.06;88.76;102959.91;3610487;39;20062;-65
2023/12/18 05:38:18;;;;;;;24.55;14.68;;;;;;;6.94;88.90;102947.56;3607784;39;20055;-66
2023/12/18 05:40:43;;;;;;;22.58;14.65;;;;;;;7.05;89.37;102972.38;3598641;39;20043;-66
2023/12/18 05:43:09;;;;;;;24.95;14.88;;;;;;;7.05;89.17;102971.50;3610427;39;20050;-64
2023/12/18 05:45:34;;;;;;;26.02;14.70;;;;;;;7.05;89.30;102980.41;3611831;39;20065;-66
2023/12/18 05:48:00;;;;;;;24.63;15.57;;;;;;;6.91;88.75;102950.28;3609367;39;20062;-65
2023/12/18 05:50:27;;;;;;;28.73;15.18;;;;;;;7.07;88.35;102969.69;3609042;39;20063;-64
2023/12/18 05:52:52;;;;;;;27.25;15.70;;;;;;;7.08;88.61;102972.34;3610998;39;20054;-65
2023/12/18 05:55:18;;;;;;;23.88;14.70;;;;;;;7.13;88.27;102978.50;3609888;39;20104;-64
2023/12/18 05:57:44;;;;;;;24.35;15.07;;;;;;;7.08;88.70;102972.34;3611493;39;20152;-65
2023/12/18 06:00:11;;;;;;;27.80;15.60;;;;;;;7.08;88.08;102963.44;3610795;39;20094;-64
2023/12/18 06:02:37;;;;;;;23.10;15.75;;;;;;;7.13;88.57;102966.94;3610031;39;20043;-64
2023/12/18 06:05:03;;;;;;;21.58;14.63;;;;;;;6.95;88.47;102939.53;3608613;39;20054;-65
2023/12/18 06:07:29;;;;;;;25.55;15.38;;;;;;;7.10;89.21;102957.16;3610866;39;20051;-65
2023/12/18 06:09:55;;;;;;;29.90;15.00;;;;;;;7.11;88.74;102960.72;3609851;39;20043;-65
2023/12/18 06:12:21;;;;;;;27.15;15.48;;;;;;;7.11;88.87;102963.41;3609795;39;20054;-65
2023/12/18 06:14:47;;;;;;;32.30;16.27;;;;;;;7.12;89.10;102960.69;3606883;39;20062;-64
2023/12/18 06:17:13;;;;;;;20.75;15.90;;;;;;;7.12;89.44;102959.81;3606946;39;20119;-65
2023/12/18 06:19:39;;;;;;;30.80;18.88;;;;;;;7.12;88.74;102966.03;3608482;39;20055;-64
2023/12/18 06:22:05;;;;;;;29.20;18.52;;;;;;;6.99;89.00;102940.38;3607287;39;20051;-65
2023/12/18 06:24:31;;;;;;;23.48;15.75;;;;;;;7.09;88.95;102966.09;3606112;39;20062;-65
2023/12/18 06:26:57;;;;;;;27.58;15.40;;;;;;;6.85;88.86;102919.16;3607363;39;20055;-65
2023/12/18 06:29:26;;;;;;;25.48;15.73;;;;;;;7.13;89.00;102962.44;3605536;39;20055;-65
2023/12/18 06:31:52;;;;;;;30.25;16.25;;;;;;;7.11;88.64;102972.31;3596447;39;20057;-65
2023/12/18 06:34:18;;;;;;;25.23;14.98;;;;;;;7.14;89.56;102968.72;3604860;39;20054;-65
2023/12/18 06:36:43;;;;;;;25.38;14.77;;;;;;;7.11;89.13;102966.97;3603497;39;20055;-65
2023/12/18 06:39:11;;;;;;;26.60;16.00;;;;;;;7.01;89.10;102948.34;3605981;39;20054;-65
2023/12/18 06:41:36;;;;;;;27.08;15.38;;;;;;;7.10;89.61;102943.78;3604372;39;20119;-65
2023/12/18 06:44:03;;;;;;;26.52;15.90;;;;;;;7.11;89.75;102958.94;3610298;39;20059;-64
2023/12/18 06:46:29;;;;;;;25.80;14.50;;;;;;;7.11;89.21;102953.59;3604836;39;20071;-65
2023/12/18 06:48:56;;;;;;;29.95;15.35;;;;;;;7.11;89.24;102960.72;3604673;39;20062;-65
2023/12/18 06:51:22;;;;;;;26.52;16.38;;;;;;;7.13;89.94;102954.44;3605134;39;20043;-64
2023/12/18 06:53:48;;;;;;;31.98;16.67;;;;;;;6.97;89.75;102934.16;3607864;39;20116;-65
2023/12/18 06:56:13;;;;;;;26.52;16.38;;;;;;;7.13;89.16;102962.44;3608841;39;20054;-64
2023/12/18 06:58:39;;;;;;;28.90;15.70;;;;;;;7.09;89.21;102950.03;3608077;39;20071;-64
2023/12/18 07:01:05;;;;;;;24.15;15.85;;;;;;;7.12;89.14;102950.00;3606245;39;20135;-65
2023/12/18 07:03:31;;;;;;;25.73;14.23;;;;;;;7.15;89.36;102951.75;3604162;39;20071;-65
2023/12/18 07:05:56;;;;;;;28.60;15.18;;;;;;;7.07;89.84;102951.88;3605278;39;20069;-65
2023/12/18 07:08:22;;;;;;;27.42;15.57;;;;;;;7.11;90.12;102972.31;3605527;39;20406;-65
2023/12/18 07:10:49;;;;;;;30.23;16.67;;;;;;;7.13;89.45;102964.25;3605374;39;20055;-64
2023/12/18 07:13:15;;;;;;;28.33;15.73;;;;;;;7.11;89.90;102952.72;3605138;39;20081;-65
2023/12/18 07:15:41;;;;;;;27.95;16.52;;;;;;;7.18;89.19;102955.28;3604329;39;20126;-64
2023/12/18 07:18:12;;;;;;;26.38;16.35;;;;;;;7.15;89.62;102965.13;3605586;39;20051;-65
2023/12/18 07:20:37;;;;;;;30.17;16.00;;;;;;;7.14;90.00;102958.91;3596690;39;20209;-64
2023/12/18 07:23:03;;;;;;;30.15;16.85;;;;;;;7.18;89.69;102974.00;3605779;39;20405;-64
2023/12/18 07:25:29;;;;;;;29.52;16.15;;;;;;;7.20;89.73;102964.16;3606504;39;20062;-65
2023/12/18 07:27:55;;;;;;;27.10;16.25;;;;;;;7.19;89.58;102977.53;3605064;39;20051;-64
2023/12/18 07:30:20;;;;;;;30.35;18.60;;;;;;;7.19;90.31;102983.78;3608343;39;20051;-64
2023/12/18 07:32:46;;;;;;;31.92;16.30;;;;;;;7.21;90.20;102976.63;3606044;39;20060;-64
2023/12/18 07:35:11;;;;;;;27.45;16.13;;;;;;;7.22;89.56;102991.75;3605937;39;20051;-64
2023/12/18 07:37:37;;;;;;;34.70;17.55;;;;;;;7.24;89.97;102980.19;3605486;39;20114;-65
2023/12/18 07:40:03;;;;;;;29.85;17.02;;;;;;;7.25;89.66;102976.59;3605936;39;20064;-64
2023/12/18 07:42:29;;;;;;;29.42;15.98;;;;;;;7.28;90.34;102971.19;3607930;39;20063;-64
2023/12/18 07:44:54;;;;;;;26.80;16.17;;;;;;;7.25;89.68;102965.88;3604842;39;20069;-65
2023/12/18 07:47:21;;;;;;;30.30;16.50;;;;;;;7.24;90.29;102980.19;3609589;39;20315;-65
2023/12/18 07:49:49;;;;;;;28.02;16.10;;;;;;;7.10;89.92;102949.13;3608673;39;20047;-64
2023/12/18 07:52:15;;;;;;;26.98;16.73;;;;;;;7.25;90.40;102972.13;3607853;39;20134;-64
2023/12/18 07:54:42;;;;;;;29.05;16.35;;;;;;;7.22;90.27;102975.72;3603563;39;20047;-65
2023/12/18 07:57:07;;;;;;;25.90;15.98;;;;;;;7.22;90.12;102961.47;3606970;39;20257;-64
2023/12/18 07:59:36;;;;;;;26.55;16.30;;;;;;;7.26;90.38;102963.19;3605283;39;20059;-64
2023/12/18 08:02:02;;;;;;;29.73;17.25;;;;;;;7.19;89.23;102959.69;3605717;39;20094;-65
2023/12/18 08:04:28;;;;;;;27.23;15.30;;;;;;;7.28;89.38;102965.84;3607569;39;20269;-65
2023/12/18 08:06:53;;;;;;;24.08;16.00;;;;;;;7.23;89.94;102960.56;3608535;39;20111;-65
2023/12/18 08:09:19;;;;;;;30.52;16.60;;;;;;;7.23;89.75;102960.56;3608920;39;20153;-64
2023/12/18 08:11:45;;;;;;;30.25;17.58;;;;;;;7.22;89.59;102958.78;3606616;39;20324;-64
2023/12/18 08:14:10;;;;;;;25.55;18.02;;;;;;;7.24;90.28;102958.78;3608853;39;20055;-65
2023/12/18 08:16:36;;;;;;;32.13;17.08;;;;;;;7.23;90.50;102955.22;3604880;39;20051;-65
2023/12/18 08:19:02;;;;;;;27.30;15.73;;;;;;;7.28;89.97;102949.78;3608769;39;20073;-64
2023/12/18 08:21:28;;;;;;;27.15;16.20;;;;;;;7.27;90.09;102946.25;3605710;39;20184;-65
2023/12/18 08:23:53;;;;;;;28.02;16.30;;;;;;;7.17;90.10;102924.09;3608656;39;20058;-65
2023/12/18 08:26:19;;;;;;;29.25;15.48;;;;;;;7.34;90.08;102949.72;3607754;39;20050;-65
2023/12/18 08:28:45;;;;;;;25.08;16.23;;;;;;;7.35;89.56;102956.81;3605277;39;20429;-65
2023/12/18 08:31:12;;;;;;;27.60;16.58;;;;;;;7.35;89.30;102944.31;3604883;39;20051;-65
2023/12/18 08:33:40;;;;;;;30.15;15.98;;;;;;;7.39;89.82;102937.13;3607769;39;20313;-65
2023/12/18 08:36:06;;;;;;;28.48;16.65;;;;;;;7.41;89.82;102951.38;3607276;39;20060;-65
2023/12/18 08:38:32;;;;;;;26.95;14.93;;;;;;;7.45;89.57;102950.44;3607386;39;20067;-65
2023/12/18 08:40:58;;;;;;;28.10;15.95;;;;;;;7.42;88.64;102946.03;3606324;39;20151;-65
2023/12/18 08:43:24;;;;;;;28.25;17.75;;;;;;;7.44;88.95;102941.50;3604841;39;20311;-65
2023/12/18 08:45:50;;;;;;;25.50;15.77;;;;;;;7.47;88.70;102953.09;3604315;39;20059;-65
2023/12/18 08:48:15;;;;;;;25.30;16.17;;;;;;;7.49;88.85;102940.59;3604261;39;20072;-65
2023/12/18 08:50:42;;;;;;;29.65;16.33;;;;;;;7.53;89.79;102950.31;3606588;39;20268;-65
2023/12/18 08:53:08;;;;;;;29.05;17.67;;;;;;;7.54;88.59;102946.72;3596710;39;20316;-65
2023/12/18 08:55:38;;;;;;;24.67;15.63;;;;;;;7.53;89.28;102945.84;3606265;39;20066;-65
2023/12/18 08:58:08;;;;;;;26.27;15.98;;;;;;;7.52;88.69;102935.19;3605994;39;20256;-65
2023/12/18 09:00:35;;;;;;;24.75;14.98;;;;;;;7.52;88.40;102936.06;3605097;39;20687;-65
2023/12/18 09:03:02;;;;;;;23.85;16.20;;;;;;;7.55;88.40;102943.13;3606345;39;20061;-65
2023/12/18 09:05:29;;;;;;;28.48;16.65;;;;;;;7.56;89.13;102943.13;3605201;39;20116;-65
2023/12/18 09:07:54;;;;;;;30.27;16.05;;;;;;;7.58;88.63;102935.97;3605362;39;20075;-65
2023/12/18 09:10:24;;;;;;;26.77;15.98;;;;;;;7.59;88.78;102932.38;3606335;39;20493;-65
2023/12/18 09:12:52;;;;;;;25.95;15.75;;;;;;;7.64;89.01;102933.22;3608157;39;20087;-65
2023/12/18 09:15:18;;;;;;;23.50;13.98;;;;;;;7.77;88.29;102928.53;3605266;39;20175;-65
2023/12/18 09:17:44;;;;;;;26.92;16.13;;;;;;;7.75;88.53;102924.13;3606825;39;20047;-65
2023/12/18 09:20:10;;;;;;;22.48;15.23;;;;;;;7.73;88.56;102925.91;3609480;39;20386;-65
2023/12/18 09:22:36;;;;;;;31.30;15.13;;;;;;;7.75;88.33;102926.78;3605288;39;20059;-65
2023/12/18 09:25:03;;;;;;;26.27;15.35;;;;;;;7.67;87.48;102916.19;3607702;39;20079;-66
2023/12/18 09:27:29;;;;;;;27.00;15.43;;;;;;;7.77;87.79;102932.97;3605256;39;20074;-65
2023/12/18 09:29:54;;;;;;;25.63;15.45;;;;;;;7.77;87.69;102932.97;3606513;39;20062;-65
2023/12/18 09:32:20;;;;;;;27.75;15.82;;;;;;;7.83;87.86;102930.22;3607382;39;20062;-63
2023/12/18 09:34:46;;;;;;;26.02;15.93;;;;;;;7.82;87.52;102937.38;3606908;39;20086;-64
2023/12/18 09:37:12;;;;;;;26.13;16.25;;;;;;;7.82;87.94;102941.84;3607374;39;20127;-66
2023/12/18 09:39:41;;;;;;;29.20;16.17;;;;;;;7.82;87.30;102944.50;3606473;39;20051;-64
2023/12/18 09:42:10;;;;;;;26.40;17.05;;;;;;;7.85;87.71;102941.78;3609115;39;20047;-63
2023/12/18 09:44:37;;;;;;;27.23;15.40;;;;;;;7.89;87.72;102940.81;3606312;39;20375;-64
2023/12/18 09:47:04;;;;;;;28.33;17.67;;;;;;;7.87;87.41;102939.97;3606903;39;20067;-64
2023/12/18 09:49:31;;;;;;;25.30;17.02;;;;;;;7.65;87.42;102897.50;3605004;39;20131;-63
2023/12/18 09:52:10;;;;;;;26.25;16.02;;;;;;;7.92;87.86;102938.09;3606276;39;20091;-63
2023/12/18 09:54:42;;;;;;;27.23;15.48;;;;;;;7.79;87.57;102916.00;3608961;39;20067;-63
2023/12/18 09:57:11;;;;;;;26.75;15.75;;;;;;;7.91;87.32;102947.03;3606374;39;20087;-64
2023/12/18 09:59:37;;;;;;;24.88;15.90;;;;;;;7.90;87.63;102935.47;3604304;39;20095;-64
2023/12/18 10:02:03;;;;;;;28.85;16.25;;;;;;;7.87;87.10;102930.16;3607211;39;20050;-64
2023/12/18 10:04:29;;;;;;;24.80;16.42;;;;;;;7.84;87.50;102929.31;3606012;39;20110;-64
2023/12/18 10:06:55;;;;;;;25.50;16.40;;;;;;;7.85;87.23;102931.97;3606712;39;20055;-64
2023/12/18 10:09:21;;;;;;;28.40;15.27;;;;;;;7.85;87.17;102937.31;3605108;39;20054;-64
2023/12/18 10:11:50;;;;;;;26.85;16.42;;;;;;;7.78;86.91;102930.31;3605873;39;20124;-64
2023/12/18 10:14:16;;;;;;;25.60;16.02;;;;;;;7.61;87.07;102906.50;3611489;39;20082;-64
2023/12/18 10:16:43;;;;;;;21.05;14.50;;;;;;;7.76;87.39;102933.91;3608155;39;20071;-65
2023/12/18 10:19:12;;;;;;;24.88;15.80;;;;;;;7.78;88.05;102919.59;3606582;39;20055;-65
2023/12/18 10:21:38;;;;;;;28.52;15.93;;;;;;;7.47;88.26;102884.41;3607621;39;20043;-65
2023/12/18 10:24:05;;;;;;;24.27;15.65;;;;;;;7.77;87.46;102928.53;3609103;39;20062;-65
2023/12/18 10:26:31;;;;;;;25.58;15.35;;;;;;;7.75;87.71;102929.47;3604504;39;20095;-65
2023/12/18 10:28:57;;;;;;;27.40;16.17;;;;;;;7.43;87.71;102880.00;3608186;39;20392;-65
2023/12/18 10:31:25;;;;;;;28.15;17.08;;;;;;;7.76;88.25;102925.88;3605082;39;20062;-66
2023/12/18 10:33:51;;;;;;;26.63;15.18;;;;;;;7.77;87.84;102930.31;3607931;39;20047;-65
2023/12/18 10:36:18;;;;;;;26.38;15.43;;;;;;;7.75;87.55;102930.34;3609448;39;20054;-65
2023/12/18 10:38:50;;;;;;;26.23;16.00;;;;;;;7.73;88.35;102917.88;3605827;39;20324;-65
2023/12/18 10:41:21;;;;;;;25.50;14.70;;;;;;;7.75;87.70;102918.75;3606550;39;20406;-65
2023/12/18 10:43:49;;;;;;;25.63;15.13;;;;;;;7.76;87.48;102915.16;3604172;39;20290;-64
2023/12/18 10:46:16;;;;;;;26.08;15.90;;;;;;;7.72;88.21;102902.75;3605004;39;20055;-65
2023/12/18 10:48:51;;;;;;;26.20;15.60;;;;;;;7.71;87.71;102909.91;3606674;39;20058;-65
2023/12/18 10:51:20;;;;;;;23.67;15.07;;;;;;;7.75;87.59;102898.22;3606018;39;20407;-65
2023/12/18 10:53:53;;;;;;;25.67;15.50;;;;;;;7.53;87.87;102862.91;3607225;39;20056;-65
2023/12/18 10:56:21;;;;;;;27.30;15.32;;;;;;;7.72;88.30;102887.56;3608337;39;20059;-64
2023/12/18 10:58:50;;;;;;;26.02;15.68;;;;;;;7.74;87.98;102888.44;3603597;39;20128;-65
2023/12/18 11:01:17;;;;;;;28.15;15.60;;;;;;;7.71;87.94;102871.50;3599151;39;20385;-65
2023/12/18 11:03:43;;;;;;;25.65;14.60;;;;;;;7.71;87.90;102868.84;3604525;39;20103;-65
2023/12/18 11:06:11;;;;;;;29.17;16.02;;;;;;;7.64;87.33;102868.97;3604491;39;20051;-64
2023/12/18 11:08:36;;;;;;;26.85;15.90;;;;;;;7.44;87.34;102828.25;3603780;39;20064;-65
2023/12/18 11:11:05;;;;;;;23.73;14.90;;;;;;;7.67;87.31;102873.34;3605162;39;20387;-65
2023/12/18 11:14:16;;;;;;;24.17;15.00;;;;;;;7.64;88.27;102879.69;3604193;39;20051;-65